createdAt,value
2023-05-14T00:00:05.191Z,2.60
2023-05-14T00:02:34.746Z,2.37
2023-05-14T00:05:03.147Z,2.40
2023-05-14T00:07:33.166Z,2.83
2023-05-14T00:10:03.339Z,2.67
2023-05-14T00:12:32.190Z,2.63
2023-05-14T00:15:00.768Z,3.03
2023-05-14T00:17:29.461Z,3.00
2023-05-14T00:19:59.439Z,2.87
2023-05-14T00:22:28.021Z,3.23
2023-05-14T00:24:57.901Z,3.13
2023-05-14T00:27:26.254Z,2.97
2023-05-14T00:29:54.664Z,3.30
2023-05-14T00:32:23.158Z,2.97
2023-05-14T00:34:51.569Z,3.53
2023-05-14T00:37:19.984Z,3.67
2023-05-14T00:39:48.373Z,3.33
2023-05-14T00:42:18.337Z,3.33
2023-05-14T00:44:46.954Z,3.43
2023-05-14T00:47:15.658Z,3.30
2023-05-14T00:49:44.424Z,2.87
2023-05-14T00:52:13.219Z,3.00
2023-05-14T00:54:42.039Z,3.00
2023-05-14T00:57:10.787Z,3.00
2023-05-14T00:59:41.615Z,2.97
2023-05-14T01:02:10.511Z,3.00
2023-05-14T01:04:39.514Z,3.20
2023-05-14T01:07:20.194Z,3.13
2023-05-14T01:09:56.295Z,2.97
2023-05-14T01:12:35.374Z,3.10
2023-05-14T01:15:12.530Z,2.93
2023-05-14T01:17:55.616Z,2.70
2023-05-14T01:20:25.023Z,2.60
2023-05-14T01:22:55.293Z,2.67
2023-05-14T01:25:23.758Z,2.63
2023-05-14T01:28:02.813Z,3.30
2023-05-14T01:30:35.451Z,2.97
2023-05-14T01:33:08.507Z,2.77
2023-05-14T01:35:37.867Z,2.90
2023-05-14T01:38:12.797Z,2.90
2023-05-14T01:40:42.453Z,2.63
2023-05-14T01:43:11.601Z,2.90
2023-05-14T01:45:40.134Z,2.53
2023-05-14T01:48:09.034Z,2.67
2023-05-14T01:50:37.411Z,2.63
2023-05-14T01:53:07.432Z,2.90
2023-05-14T01:55:35.806Z,2.60
2023-05-14T01:58:04.358Z,2.83
2023-05-14T02:00:33.102Z,2.60
2023-05-14T02:03:01.513Z,2.70
2023-05-14T02:05:29.918Z,2.60
2023-05-14T02:07:58.318Z,2.57
2023-05-14T02:10:28.088Z,2.50
2023-05-14T02:12:57.499Z,2.70
2023-05-14T02:15:25.876Z,2.77
2023-05-14T02:17:54.451Z,2.67
2023-05-14T02:20:23.517Z,2.90
2023-05-14T02:22:51.983Z,2.83
2023-05-14T02:25:20.306Z,2.87
2023-05-14T02:27:50.885Z,3.03
2023-05-14T02:30:19.462Z,2.87
2023-05-14T02:32:48.210Z,2.60
2023-05-14T02:35:17.103Z,2.90
2023-05-14T02:37:45.514Z,2.70
2023-05-14T02:40:14.112Z,2.70
2023-05-14T02:42:42.611Z,2.90
2023-05-14T02:45:13.048Z,2.87
2023-05-14T02:47:42.303Z,2.73
2023-05-14T02:50:11.899Z,3.07
2023-05-14T02:52:40.412Z,2.77
2023-05-14T02:55:11.735Z,2.70
2023-05-14T02:57:40.125Z,3.00
2023-05-14T03:00:10.392Z,2.80
2023-05-14T03:02:41.035Z,2.57
2023-05-14T03:05:10.937Z,2.87
2023-05-14T03:07:39.350Z,2.77
2023-05-14T03:10:09.136Z,2.40
2023-05-14T03:12:37.549Z,2.70
2023-05-14T03:15:06.817Z,2.90
2023-05-14T03:17:36.092Z,2.60
2023-05-14T03:20:07.485Z,2.70
2023-05-14T03:22:37.708Z,2.70
2023-05-14T03:25:07.130Z,2.70
2023-05-14T03:27:37.388Z,2.47
2023-05-14T03:30:07.699Z,2.53
2023-05-14T03:32:37.422Z,2.57
2023-05-14T03:35:10.039Z,2.33
2023-05-14T03:37:38.452Z,2.53
2023-05-14T03:40:09.490Z,2.47
2023-05-14T03:42:38.249Z,2.50
2023-05-14T03:45:08.908Z,2.57
2023-05-14T03:47:38.037Z,2.27
2023-05-14T03:50:10.672Z,2.27
2023-05-14T03:52:39.296Z,2.60
2023-05-14T03:55:08.936Z,2.40
2023-05-14T03:57:38.178Z,2.20
2023-05-14T04:00:08.743Z,2.13
2023-05-14T04:02:45.075Z,2.30
2023-05-14T04:05:15.079Z,2.70
2023-05-14T04:07:45.225Z,2.30
2023-05-14T04:10:15.168Z,2.33
2023-05-14T04:12:43.974Z,2.70
2023-05-14T04:15:12.938Z,2.70
2023-05-14T04:17:41.465Z,2.93
2023-05-14T04:20:11.617Z,2.87
2023-05-14T04:22:41.660Z,2.70
2023-05-14T04:25:10.726Z,2.53
2023-05-14T04:27:39.102Z,2.47
2023-05-14T04:30:09.636Z,2.50
2023-05-14T04:32:38.171Z,2.20
2023-05-14T04:35:09.418Z,2.43
2023-05-14T04:37:37.826Z,2.27
2023-05-14T04:40:12.579Z,2.13
2023-05-14T04:42:40.931Z,2.57
2023-05-14T04:45:10.689Z,2.37
2023-05-14T04:47:39.142Z,2.27
2023-05-14T04:50:10.110Z,2.20
2023-05-14T04:52:39.252Z,2.17
2023-05-14T04:55:11.435Z,2.30
2023-05-14T04:57:39.773Z,2.17
2023-05-14T05:00:11.191Z,2.30
2023-05-14T05:02:39.710Z,2.00
2023-05-14T05:05:08.713Z,2.10
2023-05-14T05:07:37.175Z,2.47
2023-05-14T05:10:06.497Z,1.97
2023-05-14T05:12:36.524Z,2.40
2023-05-14T05:15:05.668Z,2.30
2023-05-14T05:17:34.089Z,2.50
2023-05-14T05:20:02.635Z,2.30
2023-05-14T05:22:30.993Z,2.53
2023-05-14T05:24:59.902Z,2.30
2023-05-14T05:27:28.523Z,2.30
2023-05-14T05:29:58.315Z,2.33
2023-05-14T05:32:26.891Z,2.47
2023-05-14T05:34:55.840Z,2.73
2023-05-14T05:37:24.701Z,2.50
2023-05-14T05:39:53.965Z,2.40
2023-05-14T05:42:22.525Z,2.37
2023-05-14T05:44:50.922Z,2.47
2023-05-14T05:47:20.852Z,2.40
2023-05-14T05:49:49.301Z,2.67
2023-05-14T05:52:17.971Z,2.40
2023-05-14T05:54:46.384Z,2.67
2023-05-14T05:57:14.846Z,2.60
2023-05-14T05:59:43.297Z,2.27
2023-05-14T06:02:12.949Z,2.53
2023-05-14T06:04:42.730Z,2.77
2023-05-14T06:07:11.022Z,2.37
2023-05-14T06:09:39.509Z,2.60
2023-05-14T06:12:09.498Z,2.10
2023-05-14T06:14:38.169Z,2.43
2023-05-14T06:17:06.935Z,2.27
2023-05-14T06:19:35.883Z,2.60
2023-05-14T06:22:06.162Z,2.37
2023-05-14T06:24:34.651Z,2.30
2023-05-14T06:27:03.138Z,2.10
2023-05-14T06:29:31.629Z,2.07
2023-05-14T06:32:04.282Z,2.40
2023-05-14T06:34:33.285Z,2.20
2023-05-14T06:37:04.114Z,2.10
2023-05-14T06:39:34.036Z,2.50
2023-05-14T06:42:02.975Z,2.10
2023-05-14T06:44:33.084Z,2.27
2023-05-14T06:47:01.647Z,2.20
2023-05-14T06:49:30.132Z,2.20
2023-05-14T06:51:58.812Z,2.20
2023-05-14T06:54:27.242Z,2.30
2023-05-14T06:56:57.305Z,1.83
2023-05-14T06:59:25.686Z,2.17
2023-05-14T07:01:54.448Z,2.00
2023-05-14T07:04:23.330Z,2.00
2023-05-14T07:06:51.765Z,2.00
2023-05-14T07:09:20.118Z,1.90
2023-05-14T07:11:48.554Z,1.83
2023-05-14T07:14:18.384Z,1.80
2023-05-14T07:16:47.072Z,1.50
2023-05-14T07:19:15.861Z,1.40
2023-05-14T07:21:44.985Z,1.67
2023-05-14T07:24:13.404Z,1.60
2023-05-14T07:26:42.156Z,1.73
2023-05-14T07:29:10.539Z,1.60
2023-05-14T07:31:40.444Z,1.57
2023-05-14T07:34:10.955Z,1.67
2023-05-14T07:36:39.715Z,1.60
2023-05-14T07:39:08.480Z,1.50
2023-05-14T07:41:37.168Z,1.57
2023-05-14T07:44:06.296Z,1.60
2023-05-14T07:46:34.716Z,1.40
2023-05-14T07:49:04.638Z,1.70
2023-05-14T07:51:33.464Z,1.23
2023-05-14T07:54:01.815Z,1.30
2023-05-14T07:56:30.613Z,1.23
2023-05-14T07:58:59.053Z,1.47
2023-05-14T08:01:27.474Z,1.23
2023-05-14T08:03:56.102Z,1.17
2023-05-14T08:06:27.598Z,1.20
2023-05-14T08:08:56.139Z,1.07
2023-05-14T08:11:24.850Z,1.30
2023-05-14T08:13:53.374Z,1.10
2023-05-14T08:16:21.764Z,1.20
2023-05-14T08:18:50.197Z,0.90
2023-05-14T08:21:18.595Z,1.00
2023-05-14T08:23:48.442Z,0.90
2023-05-14T08:26:17.101Z,1.03
2023-05-14T08:28:45.475Z,1.10
2023-05-14T08:31:14.616Z,1.10
2023-05-14T08:33:43.031Z,1.10
2023-05-14T08:36:11.592Z,0.90
2023-05-14T08:38:39.953Z,1.00
2023-05-14T08:41:11.662Z,0.90
2023-05-14T08:43:47.095Z,1.07
2023-05-14T08:46:18.553Z,0.77
2023-05-14T08:48:54.322Z,0.90
2023-05-14T08:51:23.138Z,1.03
2023-05-14T08:53:51.490Z,1.10
2023-05-14T08:56:21.912Z,1.10
2023-05-14T08:58:50.894Z,0.90
2023-05-14T09:01:21.534Z,0.90
2023-05-14T09:03:51.674Z,0.80
2023-05-14T09:06:21.505Z,1.10
2023-05-14T09:08:49.996Z,0.80
2023-05-14T09:11:18.904Z,1.20
2023-05-14T09:13:48.905Z,0.83
2023-05-14T09:16:19.169Z,0.90
2023-05-14T09:18:48.775Z,0.73
2023-05-14T09:21:17.214Z,1.17
2023-05-14T09:23:47.806Z,1.00
2023-05-14T09:26:19.886Z,0.90
2023-05-14T09:28:49.836Z,0.90
2023-05-14T09:31:18.212Z,0.83
2023-05-14T09:33:52.530Z,1.00
2023-05-14T09:36:21.449Z,1.00
2023-05-14T09:38:50.052Z,0.90
2023-05-14T09:41:19.297Z,0.97
2023-05-14T09:43:49.778Z,1.00
2023-05-14T09:46:18.216Z,0.90
2023-05-14T09:48:47.498Z,1.17
2023-05-14T09:51:17.617Z,1.00
2023-05-14T09:53:46.105Z,1.20
2023-05-14T09:56:14.671Z,0.80
2023-05-14T09:58:43.019Z,1.00
2023-05-14T10:01:13.722Z,1.13
2023-05-14T10:03:42.470Z,1.10
2023-05-14T10:06:12.140Z,0.90
2023-05-14T10:08:45.496Z,1.00
2023-05-14T10:11:22.372Z,0.83
2023-05-14T10:14:00.267Z,0.83
2023-05-14T10:16:36.440Z,0.83
2023-05-14T10:19:10.437Z,1.07
2023-05-14T10:21:42.174Z,0.97
2023-05-14T10:24:12.743Z,0.90
2023-05-14T10:26:42.865Z,0.80
2023-05-14T10:29:12.388Z,0.80
2023-05-14T10:31:51.277Z,0.83
2023-05-14T10:34:37.577Z,0.80
2023-05-14T10:37:09.046Z,1.00
2023-05-14T10:39:46.382Z,0.80
2023-05-14T10:42:17.870Z,0.80
2023-05-14T10:44:54.149Z,0.50
2023-05-14T10:47:24.183Z,0.70
2023-05-14T10:49:56.728Z,1.17
2023-05-14T10:52:26.450Z,1.00
2023-05-14T10:54:56.696Z,1.00
2023-05-14T10:57:27.554Z,0.63
2023-05-14T10:59:57.989Z,0.70
2023-05-14T11:02:30.367Z,1.00
2023-05-14T11:05:03.643Z,0.77
2023-05-14T11:07:34.350Z,0.93
2023-05-14T11:10:05.668Z,0.80
2023-05-14T11:12:35.068Z,0.63
2023-05-14T11:15:05.725Z,0.77
2023-05-14T11:17:37.883Z,0.90
2023-05-14T11:20:08.170Z,0.80
2023-05-14T11:22:37.691Z,0.97
2023-05-14T11:25:08.069Z,1.07
2023-05-14T11:27:38.822Z,0.93
2023-05-14T11:30:14.609Z,1.17
2023-05-14T11:32:46.598Z,1.00
2023-05-14T11:35:15.989Z,0.90
2023-05-14T11:37:45.350Z,0.80
2023-05-14T11:40:17.452Z,1.00
2023-05-14T11:42:46.770Z,0.80
2023-05-14T11:45:26.566Z,1.00
2023-05-14T11:47:56.348Z,0.90
2023-05-14T11:50:26.322Z,0.87
2023-05-14T11:52:58.453Z,1.17
2023-05-14T11:55:27.050Z,0.93
2023-05-14T11:57:55.874Z,1.10
2023-05-14T12:00:25.116Z,1.00
2023-05-14T12:02:55.801Z,0.90
2023-05-14T12:05:24.555Z,0.97
2023-05-14T12:07:53.445Z,1.07
2023-05-14T12:10:22.269Z,1.10
2023-05-14T12:12:50.826Z,0.93
2023-05-14T12:15:21.760Z,1.00
2023-05-14T12:17:53.501Z,0.93
2023-05-14T12:20:26.333Z,0.90
2023-05-14T12:22:55.568Z,0.70
2023-05-14T12:25:26.816Z,1.03
2023-05-14T12:27:55.356Z,0.87
2023-05-14T12:30:23.692Z,0.90
2023-05-14T12:32:53.659Z,0.77
2023-05-14T12:35:24.078Z,0.90
2023-05-14T12:37:52.740Z,0.80
2023-05-14T12:40:21.562Z,0.70
2023-05-14T12:42:50.332Z,0.80
2023-05-14T12:45:19.017Z,0.80
2023-05-14T12:47:48.073Z,1.00
2023-05-14T12:50:16.639Z,0.80
2023-05-14T12:52:46.854Z,0.70
2023-05-14T12:55:15.296Z,0.90
2023-05-14T12:57:43.912Z,0.80
2023-05-14T13:00:14.386Z,0.70
2023-05-14T13:02:44.101Z,0.67
2023-05-14T13:05:13.064Z,0.80
2023-05-14T13:07:41.652Z,0.70
2023-05-14T13:10:12.532Z,0.90
2023-05-14T13:12:41.227Z,0.60
2023-05-14T13:15:11.199Z,0.70
2023-05-14T13:17:41.197Z,0.80
2023-05-14T13:20:10.969Z,0.63
2023-05-14T13:22:39.672Z,0.63
2023-05-14T13:25:09.861Z,0.70
2023-05-14T13:27:39.863Z,0.67
2023-05-14T13:30:09.834Z,0.70
2023-05-14T13:32:39.604Z,0.60
2023-05-14T13:35:10.224Z,0.60
2023-05-14T13:37:39.161Z,0.60
2023-05-14T13:40:09.713Z,0.63
2023-05-14T13:42:40.788Z,0.60
2023-05-14T13:45:11.756Z,0.80
2023-05-14T13:47:40.345Z,0.60
2023-05-14T13:50:10.081Z,0.83
2023-05-14T13:52:39.052Z,0.50
2023-05-14T13:55:09.216Z,0.70
2023-05-14T13:57:39.821Z,0.80
2023-05-14T14:00:11.105Z,0.90
2023-05-14T14:02:39.553Z,0.67
2023-05-14T14:05:09.266Z,0.60
2023-05-14T14:07:38.899Z,0.80
2023-05-14T14:10:09.512Z,0.70
2023-05-14T14:12:40.003Z,0.60
2023-05-14T14:15:09.896Z,0.67
2023-05-14T14:17:39.058Z,0.70
2023-05-14T14:20:09.695Z,0.60
2023-05-14T14:22:38.522Z,0.70
2023-05-14T14:25:08.441Z,0.70
2023-05-14T14:27:38.765Z,0.63
2023-05-14T14:30:15.742Z,0.40
2023-05-14T14:32:45.741Z,0.50
2023-05-14T14:35:16.304Z,0.70
2023-05-14T14:37:50.570Z,0.73
2023-05-14T14:40:19.266Z,0.80
2023-05-14T14:42:47.755Z,0.70
2023-05-14T14:45:17.416Z,0.80
2023-05-14T14:47:48.487Z,0.77
2023-05-14T14:50:17.032Z,0.80
2023-05-14T14:52:47.965Z,0.60
2023-05-14T14:55:16.385Z,0.90
2023-05-14T14:57:44.825Z,0.70
2023-05-14T15:00:16.108Z,0.50
2023-05-14T15:02:45.959Z,0.50
2023-05-14T15:05:14.908Z,0.87
2023-05-14T15:07:43.385Z,0.97
2023-05-14T15:10:12.205Z,0.90
2023-05-14T15:12:40.573Z,0.87
2023-05-14T15:15:11.415Z,0.77
2023-05-14T15:17:39.999Z,0.57
2023-05-14T15:20:12.478Z,0.50
2023-05-14T15:22:41.229Z,0.80
2023-05-14T15:25:10.463Z,0.70
2023-05-14T15:27:38.835Z,0.73
2023-05-14T15:30:09.301Z,0.67
2023-05-14T15:32:37.666Z,0.70
2023-05-14T15:35:07.541Z,0.63
2023-05-14T15:37:41.329Z,0.60
2023-05-14T15:40:11.614Z,0.70
2023-05-14T15:42:43.521Z,0.60
2023-05-14T15:45:14.576Z,0.70
2023-05-14T15:47:44.259Z,0.70
2023-05-14T15:50:13.826Z,0.53
2023-05-14T15:52:43.747Z,0.60
2023-05-14T15:55:12.304Z,0.70
2023-05-14T15:57:40.738Z,0.50
2023-05-14T16:00:11.438Z,0.50
2023-05-14T16:02:40.974Z,0.50
2023-05-14T16:05:10.099Z,0.50
2023-05-14T16:07:38.565Z,0.77
2023-05-14T16:10:10.433Z,0.60
2023-05-14T16:12:38.923Z,0.70
2023-05-14T16:15:09.390Z,0.80
2023-05-14T16:17:37.861Z,0.80
2023-05-14T16:20:07.930Z,0.80
2023-05-14T16:22:36.566Z,0.60
2023-05-14T16:25:05.963Z,0.80
2023-05-14T16:27:36.017Z,0.73
2023-05-14T16:30:05.100Z,0.87
2023-05-14T16:32:33.765Z,1.07
2023-05-14T16:35:02.816Z,0.90
2023-05-14T16:37:32.191Z,0.87
2023-05-14T16:40:00.608Z,1.00
2023-05-14T16:42:30.045Z,1.23
2023-05-14T16:44:59.878Z,1.00
2023-05-14T16:47:28.367Z,1.00
2023-05-14T16:49:56.678Z,0.80
2023-05-14T16:52:25.308Z,0.87
2023-05-14T16:54:53.754Z,1.00
2023-05-14T16:57:22.114Z,1.00
2023-05-14T16:59:50.488Z,0.90
2023-05-14T17:02:21.205Z,0.90
2023-05-14T17:04:49.685Z,0.93
2023-05-14T17:07:18.607Z,0.90
2023-05-14T17:09:47.478Z,0.90
2023-05-14T17:12:15.926Z,0.77
2023-05-14T17:14:44.335Z,0.73
2023-05-14T17:17:12.791Z,0.80
2023-05-14T17:19:42.654Z,1.00
2023-05-14T17:22:11.066Z,0.90
2023-05-14T17:24:40.095Z,0.90
2023-05-14T17:27:08.598Z,0.87
2023-05-14T17:29:38.202Z,0.60
2023-05-14T17:32:07.543Z,1.00
2023-05-14T17:34:36.403Z,0.80
2023-05-14T17:37:07.014Z,0.70
2023-05-14T17:39:35.525Z,0.90
2023-05-14T17:42:04.310Z,0.80
2023-05-14T17:44:32.737Z,0.93
2023-05-14T17:47:01.204Z,0.80
2023-05-14T17:49:29.656Z,1.00
2023-05-14T17:51:58.355Z,0.90
2023-05-14T17:54:28.200Z,0.80
2023-05-14T17:56:57.107Z,0.90
2023-05-14T17:59:26.313Z,0.77
2023-05-14T18:01:54.794Z,1.00
2023-05-14T18:04:23.184Z,0.63
2023-05-14T18:06:51.731Z,0.77
2023-05-14T18:09:20.151Z,0.77
2023-05-14T18:11:49.987Z,0.70
2023-05-14T18:14:19.017Z,0.80
2023-05-14T18:16:47.464Z,0.70
2023-05-14T18:19:15.962Z,0.80
2023-05-14T18:21:46.624Z,0.80
2023-05-14T18:24:15.254Z,0.80
2023-05-14T18:26:44.425Z,0.60
2023-05-14T18:29:14.996Z,0.80
2023-05-14T18:31:44.450Z,0.80
2023-05-14T18:34:12.900Z,0.80
2023-05-14T18:36:41.218Z,0.80
2023-05-14T18:39:09.697Z,0.70
2023-05-14T18:41:38.295Z,0.70
2023-05-14T18:44:06.831Z,0.70
2023-05-14T18:46:37.276Z,0.73
2023-05-14T18:49:06.119Z,0.50
2023-05-14T18:51:34.608Z,0.60
2023-05-14T18:54:03.688Z,0.80
2023-05-14T18:56:32.218Z,0.80
2023-05-14T18:59:00.641Z,0.90
2023-05-14T19:01:29.600Z,0.70
2023-05-14T19:04:01.271Z,0.73
2023-05-14T19:06:31.806Z,0.80
2023-05-14T19:09:00.821Z,0.63
2023-05-14T19:11:30.375Z,0.80
2023-05-14T19:13:59.007Z,0.80
2023-05-14T19:16:28.003Z,0.70
2023-05-14T19:18:56.682Z,0.57
2023-05-14T19:21:27.086Z,0.60
2023-05-14T19:23:55.894Z,0.80
2023-05-14T19:26:24.342Z,0.73
2023-05-14T19:28:57.910Z,0.63
2023-05-14T19:31:26.740Z,0.77
2023-05-14T19:33:55.331Z,0.77
2023-05-14T19:36:24.264Z,0.90
2023-05-14T19:38:54.928Z,1.00
2023-05-14T19:41:23.447Z,0.80
2023-05-14T19:43:52.337Z,0.80
2023-05-14T19:46:20.807Z,0.80
2023-05-14T19:48:49.564Z,0.80
2023-05-14T19:51:18.082Z,0.90
2023-05-14T19:53:46.567Z,0.90
2023-05-14T19:56:17.127Z,0.80
2023-05-14T19:58:46.182Z,0.80
2023-05-14T20:01:15.137Z,1.07
2023-05-14T20:03:43.851Z,0.90
2023-05-14T20:06:12.407Z,0.83
2023-05-14T20:08:41.261Z,1.00
2023-05-14T20:11:09.746Z,1.00
2023-05-14T20:13:39.999Z,0.80
2023-05-14T20:16:08.488Z,0.93
2023-05-14T20:18:37.581Z,0.87
2023-05-14T20:21:06.156Z,0.70
2023-05-14T20:23:34.552Z,0.83
2023-05-14T20:26:04.067Z,0.90
2023-05-14T20:28:32.885Z,0.93
2023-05-14T20:31:04.004Z,0.83
2023-05-14T20:33:32.658Z,0.90
2023-05-14T20:36:03.548Z,0.97
2023-05-14T20:38:32.774Z,0.70
2023-05-14T20:41:01.387Z,0.87
2023-05-14T20:43:29.774Z,0.70
2023-05-14T20:45:58.985Z,0.97
2023-05-14T20:48:28.822Z,1.00
2023-05-14T20:50:57.662Z,0.90
2023-05-14T20:53:28.297Z,0.97
2023-05-14T20:55:58.892Z,1.00
2023-05-14T20:58:27.467Z,1.00
2023-05-14T21:00:56.004Z,0.90
2023-05-14T21:03:24.868Z,1.00
2023-05-14T21:05:56.939Z,0.97
2023-05-14T21:08:26.321Z,0.80
2023-05-14T21:10:54.559Z,0.87
2023-05-14T21:13:22.945Z,1.00
2023-05-14T21:15:51.298Z,0.83
2023-05-14T21:18:19.798Z,0.90
2023-05-14T21:20:48.142Z,0.83
2023-05-14T21:23:19.547Z,1.00
2023-05-14T21:25:48.273Z,0.77
2023-05-14T21:28:17.020Z,0.70
2023-05-14T21:30:45.962Z,0.83
2023-05-14T21:33:15.577Z,0.90
2023-05-14T21:35:44.440Z,0.90
2023-05-14T21:38:13.397Z,0.90
2023-05-14T21:40:43.198Z,0.60
2023-05-14T21:43:11.962Z,0.97
2023-05-14T21:45:40.784Z,1.00
2023-05-14T21:48:09.578Z,0.83
2023-05-14T21:50:38.186Z,1.00
2023-05-14T21:53:06.542Z,0.80
2023-05-14T21:55:35.244Z,0.90
2023-05-14T21:58:05.142Z,0.90
2023-05-14T22:00:33.743Z,0.80
2023-05-14T22:03:02.371Z,1.10
2023-05-14T22:05:30.870Z,0.97
2023-05-14T22:08:00.066Z,1.23
2023-05-14T22:10:28.719Z,1.20
2023-05-14T22:12:57.194Z,1.20
2023-05-14T22:15:27.541Z,1.30
2023-05-14T22:17:57.287Z,1.27
2023-05-14T22:20:25.915Z,1.40
2023-05-14T22:22:54.509Z,1.37
2023-05-14T22:25:23.179Z,1.30
2023-05-14T22:27:51.888Z,1.50
2023-05-14T22:30:21.185Z,1.50
2023-05-14T22:32:51.286Z,1.40
2023-05-14T22:35:19.756Z,1.70
2023-05-14T22:37:48.160Z,1.50
2023-05-14T22:40:16.859Z,1.70
2023-05-14T22:42:45.309Z,1.80
2023-05-14T22:45:13.668Z,1.70
2023-05-14T22:47:42.653Z,1.70
2023-05-14T22:50:13.145Z,1.40
2023-05-14T22:52:42.438Z,1.50
2023-05-14T22:55:11.669Z,1.20
2023-05-14T22:57:40.472Z,1.40
2023-05-14T23:00:11.163Z,1.20
2023-05-14T23:02:40.638Z,1.27
2023-05-14T23:05:10.586Z,1.33
2023-05-14T23:07:40.606Z,1.20
2023-05-14T23:10:10.346Z,1.40
2023-05-14T23:12:38.734Z,1.17
2023-05-14T23:15:08.441Z,1.40
2023-05-14T23:17:36.908Z,1.60
2023-05-14T23:20:06.761Z,1.57
2023-05-14T23:22:35.163Z,1.50
2023-05-14T23:25:05.601Z,1.73
2023-05-14T23:27:34.550Z,1.67
2023-05-14T23:30:03.949Z,1.67
2023-05-14T23:32:32.595Z,1.20
2023-05-14T23:35:00.975Z,1.30
2023-05-14T23:37:29.575Z,1.60
2023-05-14T23:39:58.209Z,1.20
2023-05-14T23:42:28.096Z,1.60
2023-05-14T23:44:56.602Z,1.40
2023-05-14T23:47:25.043Z,1.20
2023-05-14T23:49:53.627Z,1.43
2023-05-14T23:52:21.962Z,1.17
2023-05-14T23:54:50.636Z,1.20
2023-05-14T23:57:19.222Z,1.20
2023-05-14T23:59:49.303Z,1.13
